Lorenton, Pennsylvania
Current Conditions -  °F | °C
As of 2:55 PM on Friday 24 Oct 2014 (Local Time) from KN38 Reporting Station
Clear Clear  
Wind Chill: 61°   Ceiling: Unl
Heat Index: 61°   Visibility: 10mi
Dew Point: 30°   Wind: 14mph
Humidity: 31%   Direction: 340°NNW
Pressure: 29.92"   Gusts: NA
Location:  41.533°N, 77.3132°W
Report Text: KN38 241855Z AUTO 34012KT 10SM CLR 16/M01 A2992 RMK AO2
Loading
Personal Weather Stations






























Interactive Weather Map
Tropical Storm Tracking
New forecast layout! Learn more

10-Day Weather Forecast

Advertisements
Track Severe Weather on mobile